Time;durP1;ratioP1;P1;durP2;ratioP2;P2;SDS_P1;SDS_P2;PMS_P1;PMS_P2;Temp;Humidity;BMP_temperature;BMP_pressure;BME280_temperature;BME280_humidity;BME280_pressure;Samples;Min_cycle;Max_cycle;Signal;HPM_P1;HPM_P2
2024/03/24 00:01:44;;;;;;;3.60;2.93;;;5.20;99.90;;;;;;4965126;28;20249;-73
2024/03/24 00:04:09;;;;;;;4.60;3.20;;;5.20;99.90;;;;;;4957387;28;20376;-73
2024/03/24 00:06:35;;;;;;;3.27;2.23;;;5.20;99.90;;;;;;4969346;28;20282;-73
2024/03/24 00:09:01;;;;;;;2.90;2.70;;;5.10;99.90;;;;;;4969287;28;20216;-71
2024/03/24 00:11:26;;;;;;;3.97;2.90;;;5.10;99.90;;;;;;4974737;28;20237;-72
2024/03/24 00:13:52;;;;;;;2.43;2.23;;;5.10;99.90;;;;;;4959881;28;20308;-72
2024/03/24 00:16:18;;;;;;;4.33;2.43;;;5.10;99.90;;;;;;4966674;28;20305;-72
2024/03/24 00:18:43;;;;;;;3.77;2.67;;;5.00;99.90;;;;;;4975886;28;20230;-73
2024/03/24 00:21:09;;;;;;;5.40;2.70;;;5.00;99.90;;;;;;4962681;28;20221;-73
2024/03/24 00:23:35;;;;;;;3.53;2.77;;;5.10;99.90;;;;;;4977616;28;20223;-74
2024/03/24 00:26:00;;;;;;;4.57;2.93;;;5.10;99.90;;;;;;4958045;28;20210;-72
2024/03/24 00:28:26;;;;;;;2.60;2.13;;;5.10;99.90;;;;;;4954708;28;20225;-73
2024/03/24 00:30:53;;;;;;;3.40;2.87;;;5.10;99.90;;;;;;4959047;28;20218;-72
2024/03/24 00:33:20;;;;;;;2.90;2.47;;;5.20;99.90;;;;;;4972510;28;20457;-74
2024/03/24 00:35:45;;;;;;;3.30;2.47;;;5.30;99.90;;;;;;4972496;28;20463;-74
2024/03/24 00:38:13;;;;;;;6.03;2.90;;;5.20;99.90;;;;;;4972932;28;20928;-73
2024/03/24 00:40:39;;;;;;;7.07;2.80;;;5.20;99.90;;;;;;4980581;28;20229;-73
2024/03/24 00:43:05;;;;;;;2.07;1.83;;;5.20;99.90;;;;;;4969195;28;20461;-74
2024/03/24 00:45:31;;;;;;;2.33;2.13;;;5.10;99.90;;;;;;4959162;28;20462;-74
2024/03/24 00:47:57;;;;;;;1.67;1.57;;;5.10;99.90;;;;;;4969907;28;20239;-74
2024/03/24 00:50:23;;;;;;;1.90;1.70;;;5.00;99.90;;;;;;4971446;28;20568;-74
2024/03/24 00:52:48;;;;;;;1.53;1.40;;;5.00;99.90;;;;;;4960001;28;20291;-73
2024/03/24 00:55:14;;;;;;;2.00;1.53;;;4.90;99.90;;;;;;4955872;28;20226;-72
2024/03/24 00:57:40;;;;;;;1.30;1.20;;;5.00;99.90;;;;;;4961174;28;20287;-72
2024/03/24 01:00:09;;;;;;;2.80;1.50;;;5.00;99.90;;;;;;4954291;28;20226;-74
2024/03/24 01:02:35;;;;;;;1.80;1.43;;;4.90;99.90;;;;;;4973471;28;20226;-73
2024/03/24 01:05:01;;;;;;;1.30;1.23;;;4.80;99.90;;;;;;4961333;28;20508;-73
2024/03/24 01:07:29;;;;;;;1.27;0.90;;;4.80;99.90;;;;;;4957297;28;20391;-73
2024/03/24 01:09:55;;;;;;;1.27;1.07;;;4.80;99.90;;;;;;4962127;28;20313;-73
2024/03/24 01:12:23;;;;;;;1.03;0.93;;;4.80;99.90;;;;;;4954112;28;20473;-73
2024/03/24 01:14:48;;;;;;;1.57;1.47;;;4.80;99.90;;;;;;4969878;28;20250;-75
2024/03/24 01:17:17;;;;;;;3.20;1.47;;;4.80;99.90;;;;;;4957926;28;20531;-73
2024/03/24 01:19:42;;;;;;;1.80;1.00;;;4.80;99.90;;;;;;4978350;28;20457;-74
2024/03/24 01:22:08;;;;;;;1.00;0.90;;;4.70;99.90;;;;;;4968715;28;20585;-73
2024/03/24 01:24:34;;;;;;;1.13;1.03;;;4.80;99.90;;;;;;4964049;28;20783;-72
2024/03/24 01:26:59;;;;;;;1.47;1.00;;;4.90;99.90;;;;;;4960195;28;20242;-73
2024/03/24 01:29:25;;;;;;;1.30;1.20;;;5.00;99.90;;;;;;4955272;28;20787;-73
2024/03/24 01:31:51;;;;;;;0.70;0.70;;;5.10;99.90;;;;;;4972219;28;20569;-72
2024/03/24 01:34:17;;;;;;;2.90;2.63;;;5.10;99.90;;;;;;4954603;28;20317;-74
2024/03/24 01:36:42;;;;;;;1.10;0.90;;;4.90;99.90;;;;;;4975364;28;20222;-72
2024/03/24 01:39:09;;;;;;;0.93;0.83;;;4.80;99.90;;;;;;4973623;28;20214;-74
2024/03/24 01:41:35;;;;;;;0.50;0.50;;;4.70;99.90;;;;;;4975138;28;20223;-73
2024/03/24 01:44:01;;;;;;;0.87;0.87;;;4.60;99.90;;;;;;4977564;28;20474;-73
2024/03/24 01:46:28;;;;;;;1.23;0.87;;;4.50;99.90;;;;;;4960551;28;20461;-73
2024/03/24 01:48:54;;;;;;;2.60;0.60;;;4.60;99.90;;;;;;4964354;28;20465;-73
2024/03/24 01:51:20;;;;;;;2.17;0.57;;;4.60;99.90;;;;;;4979093;28;20483;-73
2024/03/24 01:53:46;;;;;;;0.70;0.50;;;4.60;99.90;;;;;;4959879;28;20214;-72
2024/03/24 01:56:12;;;;;;;0.53;0.53;;;4.60;99.90;;;;;;4971474;28;20696;-72
2024/03/24 01:58:38;;;;;;;0.60;0.50;;;4.60;99.90;;;;;;4976769;28;20596;-73
2024/03/24 02:01:05;;;;;;;0.70;0.70;;;4.60;99.90;;;;;;4951431;28;20219;-74
2024/03/24 02:03:31;;;;;;;1.13;0.60;;;4.60;99.90;;;;;;4981096;28;20213;-73
2024/03/24 02:05:59;;;;;;;0.73;0.73;;;4.60;99.90;;;;;;4976101;28;20488;-72
2024/03/24 02:08:24;;;;;;;0.80;0.77;;;4.70;99.90;;;;;;4974285;28;20465;-73
2024/03/24 02:10:50;;;;;;;0.70;0.70;;;4.70;99.90;;;;;;4957679;28;20466;-73
2024/03/24 02:13:16;;;;;;;1.43;1.10;;;4.60;99.90;;;;;;4957359;28;20218;-73
2024/03/24 02:15:42;;;;;;;1.73;0.90;;;4.70;99.90;;;;;;4960734;28;20480;-73
2024/03/24 02:18:07;;;;;;;1.90;0.90;;;4.70;99.90;;;;;;4954631;28;20215;-72
2024/03/24 02:20:33;;;;;;;0.70;0.60;;;4.70;99.90;;;;;;4968623;28;20206;-71
2024/03/24 02:22:59;;;;;;;0.60;0.60;;;4.70;99.90;;;;;;4962774;28;20214;-72
2024/03/24 02:25:24;;;;;;;0.80;0.80;;;4.70;99.90;;;;;;4971378;28;20226;-74
2024/03/24 02:27:50;;;;;;;1.07;0.90;;;4.70;99.90;;;;;;4976183;28;20211;-73
2024/03/24 02:30:16;;;;;;;5.30;1.10;;;4.80;99.90;;;;;;4972537;28;20214;-73
2024/03/24 02:32:45;;;;;;;1.30;1.10;;;4.90;99.90;;;;;;4958251;28;20284;-73
2024/03/24 02:35:12;;;;;;;2.50;1.00;;;4.90;99.90;;;;;;4970147;28;20498;-72
2024/03/24 02:37:38;;;;;;;0.60;0.57;;;5.00;99.90;;;;;;4982619;28;20465;-72
2024/03/24 02:40:09;;;;;;;0.87;0.60;;;5.10;99.90;;;;;;4961886;28;20470;-73
2024/03/24 02:42:35;;;;;;;0.70;0.70;;;5.20;99.90;;;;;;4958937;28;20466;-73
2024/03/24 02:45:00;;;;;;;0.60;0.60;;;5.30;99.90;;;;;;4964319;28;20480;-72
2024/03/24 02:47:26;;;;;;;2.00;0.80;;;5.20;99.90;;;;;;4974669;28;20482;-73
2024/03/24 02:49:53;;;;;;;0.70;0.70;;;5.20;99.90;;;;;;4979012;28;20254;-72
2024/03/24 02:52:19;;;;;;;0.50;0.50;;;5.20;99.90;;;;;;4959309;28;20320;-72
2024/03/24 02:54:44;;;;;;;0.80;0.80;;;5.20;99.90;;;;;;4975855;28;20565;-73
2024/03/24 02:57:10;;;;;;;0.60;0.60;;;5.30;99.90;;;;;;4974016;28;20520;-72
2024/03/24 02:59:36;;;;;;;0.60;0.60;;;5.40;99.90;;;;;;4965375;28;20242;-72
2024/03/24 03:02:02;;;;;;;0.70;0.70;;;5.40;99.90;;;;;;4959528;28;20481;-72
2024/03/24 03:04:29;;;;;;;0.70;0.60;;;5.40;99.90;;;;;;4964830;28;20285;-72
2024/03/24 03:06:54;;;;;;;0.70;0.70;;;5.40;99.90;;;;;;4978506;28;20458;-73
2024/03/24 03:09:20;;;;;;;0.90;0.90;;;5.30;99.90;;;;;;4962683;28;21219;-72
2024/03/24 03:11:46;;;;;;;1.30;0.87;;;5.10;99.90;;;;;;4981581;28;20742;-73
2024/03/24 03:14:12;;;;;;;1.60;1.03;;;5.10;99.90;;;;;;4961434;28;20621;-72
2024/03/24 03:16:40;;;;;;;0.80;0.80;;;5.10;99.90;;;;;;4960682;28;20222;-73
2024/03/24 03:19:06;;;;;;;0.77;0.77;;;5.10;99.90;;;;;;4979257;28;20300;-74
2024/03/24 03:21:32;;;;;;;0.80;0.80;;;5.20;99.90;;;;;;4960491;28;20461;-73
2024/03/24 03:23:58;;;;;;;1.60;0.70;;;5.10;99.90;;;;;;4964629;28;20473;-74
2024/03/24 03:26:23;;;;;;;1.13;1.03;;;5.30;99.90;;;;;;4958417;28;20500;-72
2024/03/24 03:28:50;;;;;;;0.70;0.57;;;5.30;99.90;;;;;;4980353;28;20214;-74
2024/03/24 03:31:16;;;;;;;0.83;0.83;;;5.30;99.90;;;;;;4971831;28;20578;-73
2024/03/24 03:33:42;;;;;;;2.70;1.27;;;5.30;99.90;;;;;;4977405;28;20468;-73
2024/03/24 03:36:07;;;;;;;0.70;0.70;;;5.30;99.90;;;;;;4977912;28;20218;-73
2024/03/24 03:38:33;;;;;;;1.33;0.93;;;5.30;99.90;;;;;;4973290;28;20470;-73
2024/03/24 03:41:00;;;;;;;1.50;1.20;;;5.40;99.90;;;;;;4978322;28;20221;-73
2024/03/24 03:43:25;;;;;;;0.73;0.73;;;5.40;99.90;;;;;;4971524;28;20491;-72
2024/03/24 03:45:52;;;;;;;0.53;0.50;;;5.40;99.90;;;;;;4960843;28;20220;-73
2024/03/24 03:48:18;;;;;;;1.00;0.87;;;5.40;99.90;;;;;;4970176;28;20305;-72
2024/03/24 03:50:44;;;;;;;0.83;0.67;;;5.40;99.90;;;;;;4958513;28;20927;-73
2024/03/24 03:53:22;;;;;;;1.90;0.80;;;5.20;99.90;;;;;;4978543;28;20222;-73
2024/03/24 03:55:53;;;;;;;0.70;0.70;;;5.30;99.90;;;;;;4959615;28;20473;-74
2024/03/24 03:58:20;;;;;;;0.70;0.70;;;5.30;99.90;;;;;;4972639;28;20536;-73
2024/03/24 04:00:49;;;;;;;0.90;0.80;;;5.10;99.90;;;;;;4972306;28;20469;-72
2024/03/24 04:03:16;;;;;;;0.90;0.77;;;5.20;99.90;;;;;;4962758;28;20474;-74
2024/03/24 04:05:42;;;;;;;1.47;1.20;;;5.30;99.90;;;;;;4963062;28;20501;-73
2024/03/24 04:08:08;;;;;;;1.17;1.07;;;5.30;99.90;;;;;;4962712;28;20501;-73
2024/03/24 04:10:35;;;;;;;1.17;0.80;;;5.30;99.90;;;;;;4960655;28;20909;-72
2024/03/24 04:13:02;;;;;;;0.67;0.67;;;5.30;99.90;;;;;;4958627;28;20505;-73
2024/03/24 04:15:28;;;;;;;1.53;0.70;;;5.20;99.90;;;;;;4973985;28;20470;-74
2024/03/24 04:17:53;;;;;;;1.13;0.80;;;5.00;99.90;;;;;;4977215;28;20481;-73
2024/03/24 04:20:19;;;;;;;0.70;0.63;;;5.00;99.90;;;;;;4944503;28;20218;-73
2024/03/24 04:22:45;;;;;;;0.50;0.50;;;4.90;99.90;;;;;;4963408;28;20698;-74
2024/03/24 04:25:11;;;;;;;0.80;0.57;;;4.90;99.90;;;;;;4977692;28;20234;-72
2024/03/24 04:27:37;;;;;;;0.60;0.60;;;4.90;99.90;;;;;;4962391;28;20466;-72
2024/03/24 04:30:03;;;;;;;0.77;0.77;;;5.00;99.90;;;;;;4961054;28;20229;-72
2024/03/24 04:32:29;;;;;;;1.40;0.60;;;5.20;99.90;;;;;;4951242;28;20235;-73
2024/03/24 04:34:55;;;;;;;0.80;0.63;;;5.30;99.90;;;;;;4976040;28;20488;-74
2024/03/24 04:37:21;;;;;;;0.60;0.60;;;5.40;99.90;;;;;;4975445;28;20754;-74
2024/03/24 04:39:47;;;;;;;0.60;0.60;;;5.40;99.90;;;;;;4945070;28;20461;-74
2024/03/24 04:42:13;;;;;;;0.80;0.80;;;5.40;99.90;;;;;;4959321;28;20629;-74
2024/03/24 04:44:39;;;;;;;0.93;0.67;;;5.50;99.90;;;;;;4975498;28;20508;-74
2024/03/24 04:47:04;;;;;;;0.53;0.53;;;5.40;99.90;;;;;;4973770;28;20238;-74
2024/03/24 04:49:30;;;;;;;3.13;0.90;;;5.50;99.90;;;;;;4956646;28;20225;-73
2024/03/24 04:51:57;;;;;;;0.90;0.70;;;5.50;99.90;;;;;;4978210;28;20221;-74
2024/03/24 04:54:22;;;;;;;0.60;0.60;;;5.50;99.90;;;;;;4974917;28;20583;-73
2024/03/24 04:56:48;;;;;;;1.10;1.00;;;5.40;99.90;;;;;;4960875;28;21066;-73
2024/03/24 04:59:14;;;;;;;1.23;0.90;;;5.40;99.90;;;;;;4972914;28;20214;-73
2024/03/24 05:01:39;;;;;;;1.00;0.53;;;5.40;99.90;;;;;;4976629;28;20215;-72
2024/03/24 05:04:05;;;;;;;0.97;0.60;;;5.30;99.90;;;;;;4960989;28;20647;-73
2024/03/24 05:06:31;;;;;;;0.87;0.80;;;5.30;99.90;;;;;;4979476;28;20253;-73
2024/03/24 05:08:58;;;;;;;1.23;0.90;;;5.40;99.90;;;;;;4962541;28;20229;-72
2024/03/24 05:11:25;;;;;;;1.57;1.27;;;5.20;99.90;;;;;;4971070;28;20560;-72
2024/03/24 05:13:50;;;;;;;0.83;0.83;;;5.00;99.90;;;;;;4962104;28;20469;-72
2024/03/24 05:16:17;;;;;;;1.13;1.03;;;5.00;99.90;;;;;;4961864;28;20470;-73
2024/03/24 05:18:43;;;;;;;3.10;1.30;;;4.90;99.90;;;;;;4979442;28;20213;-73
2024/03/24 05:21:08;;;;;;;1.50;1.13;;;4.80;99.90;;;;;;4957804;28;20496;-72
2024/03/24 05:23:34;;;;;;;2.57;1.00;;;4.90;99.90;;;;;;4963362;28;20284;-71
2024/03/24 05:26:00;;;;;;;1.37;0.90;;;4.80;99.90;;;;;;4962244;28;20250;-71
2024/03/24 05:28:26;;;;;;;1.13;0.77;;;4.60;99.90;;;;;;4974991;28;20230;-73
2024/03/24 05:30:52;;;;;;;2.97;1.00;;;4.60;99.90;;;;;;4978546;28;20477;-72
2024/03/24 05:33:19;;;;;;;1.17;1.03;;;4.50;99.90;;;;;;4965949;28;20221;-73
2024/03/24 05:35:45;;;;;;;1.00;0.90;;;4.40;99.90;;;;;;4977834;28;20457;-72
2024/03/24 05:38:12;;;;;;;1.90;1.33;;;4.50;99.90;;;;;;4975514;28;20466;-71
2024/03/24 05:40:40;;;;;;;1.13;1.13;;;4.50;99.90;;;;;;4960686;28;20457;-72
2024/03/24 05:43:06;;;;;;;1.40;1.30;;;4.40;99.90;;;;;;4974423;28;20465;-72
2024/03/24 05:45:35;;;;;;;1.17;1.00;;;4.40;99.90;;;;;;4961832;28;20990;-74
2024/03/24 05:48:04;;;;;;;0.90;0.90;;;4.40;99.90;;;;;;4977475;28;20258;-73
2024/03/24 05:50:30;;;;;;;0.90;0.90;;;4.40;99.90;;;;;;4973157;28;20470;-71
2024/03/24 05:52:55;;;;;;;2.73;1.23;;;4.30;99.90;;;;;;4971487;28;20482;-71
2024/03/24 05:55:21;;;;;;;2.20;0.80;;;4.30;99.90;;;;;;4959526;28;20225;-72
2024/03/24 05:57:49;;;;;;;1.23;1.20;;;4.30;99.90;;;;;;4973735;28;20214;-73
2024/03/24 06:00:15;;;;;;;1.73;1.57;;;4.30;99.90;;;;;;4958544;28;20469;-73
2024/03/24 06:02:41;;;;;;;1.50;1.20;;;4.30;99.90;;;;;;4975166;28;20222;-73
2024/03/24 06:05:07;;;;;;;3.33;1.60;;;4.30;99.90;;;;;;4973441;28;20551;-72
2024/03/24 06:07:36;;;;;;;1.50;1.27;;;4.30;99.90;;;;;;4961136;28;20226;-72
2024/03/24 06:10:03;;;;;;;1.83;1.73;;;4.40;99.90;;;;;;4958401;28;20761;-72
2024/03/24 06:12:29;;;;;;;1.77;1.63;;;4.40;99.90;;;;;;4979620;28;20468;-73
2024/03/24 06:14:55;;;;;;;1.90;1.70;;;4.40;99.90;;;;;;4978891;28;20473;-73
2024/03/24 06:17:20;;;;;;;5.43;2.07;;;4.40;99.90;;;;;;4978192;28;20465;-72
2024/03/24 06:19:46;;;;;;;1.50;1.27;;;4.40;99.90;;;;;;4977784;28;20780;-73
2024/03/24 06:22:12;;;;;;;1.63;1.30;;;4.40;99.90;;;;;;4974713;28;20221;-72
2024/03/24 06:24:38;;;;;;;2.17;1.77;;;4.50;99.90;;;;;;4981610;28;20312;-72
2024/03/24 06:27:04;;;;;;;2.67;1.67;;;4.50;99.90;;;;;;4958395;28;21018;-73
2024/03/24 06:29:30;;;;;;;2.10;1.60;;;4.60;99.90;;;;;;4959020;28;20229;-73
2024/03/24 06:31:57;;;;;;;1.60;1.50;;;4.60;99.90;;;;;;4963630;28;20309;-74
2024/03/24 06:34:23;;;;;;;3.07;1.50;;;4.60;99.90;;;;;;4979336;28;20532;-73
2024/03/24 06:36:49;;;;;;;2.00;1.53;;;4.60;99.90;;;;;;4973620;28;20481;-73
2024/03/24 06:39:14;;;;;;;2.23;1.90;;;4.60;99.90;;;;;;4977847;28;20220;-73
2024/03/24 06:41:42;;;;;;;2.10;1.50;;;4.70;99.90;;;;;;4979581;28;20225;-73
2024/03/24 06:44:16;;;;;;;3.10;1.30;;;4.70;99.90;;;;;;4975585;28;20227;-73
2024/03/24 06:46:44;;;;;;;1.37;1.10;;;4.70;99.90;;;;;;4979755;28;20475;-73
2024/03/24 06:49:10;;;;;;;3.63;1.80;;;4.70;99.90;;;;;;4978376;28;20544;-74
2024/03/24 06:51:36;;;;;;;6.57;2.20;;;4.70;99.90;;;;;;4981554;28;20620;-72
2024/03/24 06:54:01;;;;;;;2.30;1.73;;;4.70;99.90;;;;;;4977666;28;20226;-73
2024/03/24 06:56:27;;;;;;;2.00;1.70;;;4.80;99.90;;;;;;4976777;28;20237;-74
2024/03/24 06:58:53;;;;;;;2.40;1.73;;;4.70;99.90;;;;;;4965577;28;20222;-73
2024/03/24 07:01:19;;;;;;;3.27;2.03;;;4.80;99.90;;;;;;4971397;28;20484;-73
2024/03/24 07:03:45;;;;;;;1.70;1.60;;;4.80;99.90;;;;;;4957684;28;20245;-74
2024/03/24 07:06:13;;;;;;;2.40;2.07;;;4.90;99.90;;;;;;4964676;28;20218;-74
2024/03/24 07:08:41;;;;;;;3.40;2.50;;;4.90;99.90;;;;;;4958951;28;20353;-73
2024/03/24 07:11:08;;;;;;;5.35;2.10;;;5.00;99.90;;;;;;4957196;28;20472;-73
2024/03/24 07:13:34;;;;;;;5.03;2.53;;;5.10;99.90;;;;;;4976924;28;20474;-72
2024/03/24 07:16:00;;;;;;;4.77;2.20;;;5.20;99.90;;;;;;4965957;28;20461;-72
2024/03/24 07:18:25;;;;;;;3.50;2.40;;;5.30;99.90;;;;;;4979832;28;20219;-73
2024/03/24 07:21:02;;;;;;;4.30;2.33;;;5.30;99.90;;;;;;4976764;28;20692;-73
2024/03/24 07:23:29;;;;;;;3.97;2.30;;;5.30;99.90;;;;;;4960976;28;20230;-72
2024/03/24 07:25:55;;;;;;;3.40;2.17;;;5.30;99.90;;;;;;4983645;28;20477;-72
2024/03/24 07:28:20;;;;;;;2.47;2.23;;;5.30;99.90;;;;;;4960118;28;20457;-73
2024/03/24 07:30:46;;;;;;;2.57;2.23;;;5.30;99.90;;;;;;4962262;28;20214;-71
2024/03/24 07:33:12;;;;;;;7.00;2.10;;;5.30;99.90;;;;;;4957062;28;20284;-73
2024/03/24 07:35:38;;;;;;;2.50;2.30;;;5.40;99.90;;;;;;4969043;28;20302;-73
2024/03/24 07:38:04;;;;;;;3.20;1.90;;;5.40;99.90;;;;;;4970824;28;20229;-73
2024/03/24 07:40:31;;;;;;;3.00;2.00;;;5.40;99.90;;;;;;4958465;28;21218;-74
2024/03/24 07:42:57;;;;;;;5.20;2.20;;;5.40;99.90;;;;;;4980059;28;20963;-73
2024/03/24 07:45:23;;;;;;;3.00;2.27;;;5.40;99.90;;;;;;4973324;28;20474;-73
2024/03/24 07:47:49;;;;;;;3.00;2.60;;;5.50;99.90;;;;;;4976410;28;20218;-73
2024/03/24 07:50:16;;;;;;;8.50;2.90;;;5.50;99.90;;;;;;4975858;28;20801;-73
2024/03/24 07:52:41;;;;;;;2.40;2.20;;;5.50;99.90;;;;;;4977930;28;20489;-74
2024/03/24 07:55:07;;;;;;;2.70;2.17;;;5.50;99.90;;;;;;4961313;28;20474;-73
2024/03/24 07:57:33;;;;;;;3.23;2.70;;;5.60;99.90;;;;;;4977498;28;20704;-72
2024/03/24 07:59:59;;;;;;;4.97;2.20;;;5.60;99.90;;;;;;4975645;28;20229;-73
2024/03/24 08:02:25;;;;;;;1.90;1.70;;;5.60;99.90;;;;;;4974635;28;20462;-73
2024/03/24 08:04:50;;;;;;;2.10;1.80;;;5.70;99.90;;;;;;4976191;28;20370;-74
2024/03/24 08:07:16;;;;;;;5.77;2.60;;;5.70;99.90;;;;;;4960739;28;20229;-71
2024/03/24 08:09:42;;;;;;;6.17;2.17;;;5.70;99.90;;;;;;4956800;28;20231;-73
2024/03/24 08:12:07;;;;;;;3.33;2.77;;;5.70;99.90;;;;;;4960791;28;20290;-72
2024/03/24 08:14:34;;;;;;;5.23;2.77;;;5.70;99.90;;;;;;4960474;28;20233;-73
2024/03/24 08:17:00;;;;;;;3.43;2.53;;;5.80;99.90;;;;;;4978964;28;20457;-73
2024/03/24 08:19:26;;;;;;;7.47;2.73;;;5.80;99.90;;;;;;4954816;28;20573;-73
2024/03/24 08:21:51;;;;;;;2.73;2.23;;;5.80;99.90;;;;;;4959014;28;20480;-73
2024/03/24 08:24:18;;;;;;;3.27;2.20;;;5.80;99.90;;;;;;4976430;28;20210;-72
2024/03/24 08:26:46;;;;;;;3.53;1.93;;;5.90;99.90;;;;;;4978938;28;20485;-73
2024/03/24 08:29:12;;;;;;;3.30;1.87;;;5.90;99.90;;;;;;4971230;28;20457;-73
2024/03/24 08:31:38;;;;;;;3.80;1.93;;;5.90;99.90;;;;;;4976508;28;20476;-74
2024/03/24 08:34:03;;;;;;;3.83;2.40;;;6.00;99.90;;;;;;4978924;28;20223;-74
2024/03/24 08:36:29;;;;;;;3.20;2.20;;;6.00;99.90;;;;;;4979498;28;20214;-73
2024/03/24 08:38:55;;;;;;;3.13;2.20;;;6.00;99.90;;;;;;4960198;28;20218;-73
2024/03/24 08:41:22;;;;;;;2.80;2.33;;;6.10;99.90;;;;;;4975390;28;20222;-73
2024/03/24 08:43:47;;;;;;;8.37;2.67;;;6.10;99.90;;;;;;4978640;28;20468;-73
2024/03/24 08:46:13;;;;;;;3.50;2.67;;;6.10;99.90;;;;;;4959355;28;20225;-74
2024/03/24 08:48:39;;;;;;;4.40;2.00;;;6.10;99.90;;;;;;4977170;28;20307;-75
2024/03/24 08:51:05;;;;;;;5.00;2.23;;;6.20;99.90;;;;;;4974074;28;20468;-74
2024/03/24 08:53:31;;;;;;;10.10;2.30;;;6.20;99.90;;;;;;4958903;28;20246;-74
2024/03/24 08:55:56;;;;;;;1.90;1.73;;;6.20;99.90;;;;;;4978508;28;20210;-72
2024/03/24 08:58:22;;;;;;;5.53;2.70;;;6.30;99.90;;;;;;4958446;28;20221;-72
2024/03/24 09:00:54;;;;;;;3.07;1.80;;;6.40;99.90;;;;;;4959411;28;20700;-74
2024/03/24 09:03:20;;;;;;;2.33;1.80;;;6.40;99.90;;;;;;4975387;28;20814;-72
2024/03/24 09:05:46;;;;;;;5.00;2.10;;;6.50;99.90;;;;;;4960497;28;20548;-74
2024/03/24 09:08:11;;;;;;;4.37;1.93;;;6.50;99.90;;;;;;4960049;28;20227;-74
2024/03/24 09:10:37;;;;;;;6.43;2.30;;;6.50;99.90;;;;;;4961825;28;20242;-72
2024/03/24 09:13:04;;;;;;;3.83;2.57;;;6.50;99.90;;;;;;4954739;28;20230;-73
2024/03/24 09:15:30;;;;;;;3.10;1.97;;;6.50;99.90;;;;;;4977652;28;20477;-74
2024/03/24 09:17:56;;;;;;;3.83;2.20;;;6.50;99.90;;;;;;4947774;28;20465;-74
2024/03/24 09:20:22;;;;;;;4.37;1.97;;;6.50;99.90;;;;;;4956922;28;20468;-74
2024/03/24 09:22:48;;;;;;;2.57;2.10;;;6.50;99.90;;;;;;4975192;28;20453;-74
2024/03/24 09:25:14;;;;;;;4.23;2.30;;;6.50;99.90;;;;;;4971898;28;20225;-71
2024/03/24 09:27:40;;;;;;;2.20;2.00;;;6.50;99.90;;;;;;4942886;28;20222;-74
2024/03/24 09:30:06;;;;;;;2.30;2.10;;;6.60;99.90;;;;;;4958494;28;20211;-72
2024/03/24 09:32:31;;;;;;;4.37;2.27;;;6.60;99.90;;;;;;4969661;28;20353;-73
2024/03/24 09:34:57;;;;;;;2.60;2.07;;;6.60;99.90;;;;;;4960848;28;20471;-74
2024/03/24 09:37:24;;;;;;;1.97;1.43;;;6.60;99.90;;;;;;4972473;28;20601;-73
2024/03/24 09:39:50;;;;;;;3.50;2.30;;;6.70;99.90;;;;;;4979183;28;20461;-73
2024/03/24 09:42:19;;;;;;;4.37;2.40;;;6.80;99.90;;;;;;4958949;28;20468;-75
2024/03/24 09:44:45;;;;;;;2.60;1.57;;;6.80;99.90;;;;;;4953185;28;20230;-74
2024/03/24 09:47:11;;;;;;;3.60;2.17;;;6.80;99.90;;;;;;4965887;28;20493;-74
2024/03/24 09:49:40;;;;;;;6.40;2.27;;;6.90;99.90;;;;;;4976252;28;20514;-73
2024/03/24 09:52:07;;;;;;;4.10;2.20;;;7.00;99.90;;;;;;4970563;28;20358;-74
2024/03/24 09:54:33;;;;;;;3.73;2.20;;;7.20;99.90;;;;;;4979217;28;20457;-72
2024/03/24 09:56:59;;;;;;;2.77;1.80;;;7.40;99.90;;;;;;4958562;28;20484;-74
2024/03/24 09:59:28;;;;;;;5.17;2.33;;;7.60;99.90;;;;;;4970715;28;20229;-74
2024/03/24 10:01:54;;;;;;;3.70;2.13;;;7.70;99.90;;;;;;4977292;28;20555;-74
2024/03/24 10:04:21;;;;;;;4.10;2.30;;;7.70;99.90;;;;;;4941680;28;20465;-73
2024/03/24 10:06:47;;;;;;;2.80;1.73;;;7.80;99.90;;;;;;4955987;28;20481;-73
2024/03/24 10:09:12;;;;;;;1.80;1.40;;;7.80;99.90;;;;;;4972647;28;20460;-73
2024/03/24 10:11:38;;;;;;;9.20;2.30;;;7.90;99.90;;;;;;4972364;28;20250;-73
2024/03/24 10:14:07;;;;;;;3.00;1.90;;;7.90;99.90;;;;;;4973733;28;20317;-74
2024/03/24 10:16:33;;;;;;;2.93;2.33;;;8.00;99.90;;;;;;4958447;28;20272;-73
2024/03/24 10:19:12;;;;;;;1.97;1.33;;;8.00;99.90;;;;;;4961788;28;20464;-72
2024/03/24 10:21:41;;;;;;;6.80;1.73;;;7.90;99.90;;;;;;4949105;28;20465;-73
2024/03/24 10:24:07;;;;;;;2.73;1.30;;;7.80;99.90;;;;;;4953450;28;20489;-72
2024/03/24 10:26:36;;;;;;;1.63;1.17;;;7.80;99.90;;;;;;4965465;28;20979;-73
2024/03/24 10:29:04;;;;;;;2.10;1.90;;;7.60;99.90;;;;;;4970765;28;20985;-73
2024/03/24 10:31:31;;;;;;;2.60;1.83;;;7.50;99.90;;;;;;4974431;28;20517;-73
2024/03/24 10:33:57;;;;;;;1.53;1.43;;;7.40;99.90;;;;;;4958872;28;20466;-73
2024/03/24 10:36:23;;;;;;;1.67;1.47;;;7.30;99.90;;;;;;4958038;28;20453;-73
2024/03/24 10:38:48;;;;;;;2.80;1.53;;;7.30;99.90;;;;;;4971382;28;20222;-74
2024/03/24 10:41:15;;;;;;;2.30;1.67;;;7.20;99.90;;;;;;4955029;28;20215;-74
2024/03/24 10:43:47;;;;;;;5.67;2.13;;;7.10;99.90;;;;;;4974552;28;20218;-73
2024/03/24 10:46:13;;;;;;;2.50;2.03;;;7.00;99.90;;;;;;4968905;28;20973;-72
2024/03/24 10:48:45;;;;;;;3.10;1.70;;;7.00;99.90;;;;;;4955572;28;20454;-73
2024/03/24 10:51:14;;;;;;;2.37;1.53;;;7.00;99.90;;;;;;4973787;28;20218;-73
2024/03/24 10:53:42;;;;;;;2.53;1.77;;;7.00;99.90;;;;;;4973792;28;20461;-72
2024/03/24 10:56:09;;;;;;;2.73;1.67;;;6.90;99.90;;;;;;4953349;28;20449;-73
2024/03/24 10:58:36;;;;;;;2.60;1.53;;;6.90;99.90;;;;;;4965370;28;20449;-72
2024/03/24 11:01:02;;;;;;;1.87;1.23;;;6.90;99.90;;;;;;4969045;28;20449;-74
2024/03/24 11:03:29;;;;;;;2.97;1.67;;;7.00;99.90;;;;;;4943050;28;20447;-75
2024/03/24 11:05:56;;;;;;;4.57;1.70;;;7.10;99.90;;;;;;4964272;28;20450;-73
2024/03/24 11:08:23;;;;;;;1.70;1.60;;;7.00;99.90;;;;;;4970246;28;20614;-72
2024/03/24 11:10:52;;;;;;;1.90;1.30;;;7.10;99.90;;;;;;4978902;28;20457;-74
2024/03/24 11:13:24;;;;;;;1.43;1.10;;;6.80;99.90;;;;;;4973459;28;20485;-74
2024/03/24 11:15:52;;;;;;;2.17;1.17;;;6.70;99.90;;;;;;4973802;28;21026;-74
2024/03/24 11:18:22;;;;;;;2.63;0.97;;;6.80;99.90;;;;;;4942508;28;20470;-73
2024/03/24 11:20:55;;;;;;;0.93;0.80;;;7.00;99.90;;;;;;4973925;28;20476;-73
2024/03/24 11:23:33;;;;;;;2.10;1.30;;;7.40;99.90;;;;;;4968705;28;20516;-74
2024/03/24 11:26:03;;;;;;;1.17;0.80;;;7.60;99.90;;;;;;4976619;28;20475;-72
2024/03/24 11:28:45;;;;;;;1.10;0.90;;;7.80;99.90;;;;;;4971028;28;20995;-74
2024/03/24 11:31:14;;;;;;;1.50;0.83;;;8.00;99.90;;;;;;4969524;28;20528;-73
2024/03/24 11:33:40;;;;;;;2.10;1.13;;;8.20;99.90;;;;;;4977539;28;20605;-74
2024/03/24 11:36:17;;;;;;;1.40;1.03;;;8.40;99.90;;;;;;4961618;28;20453;-74
2024/03/24 11:38:44;;;;;;;1.47;1.30;;;8.50;99.90;;;;;;4973321;28;20217;-73
2024/03/24 11:41:14;;;;;;;1.30;1.20;;;8.60;99.90;;;;;;4957393;28;20476;-74
2024/03/24 11:43:40;;;;;;;1.10;0.90;;;8.90;99.90;;;;;;4975982;28;20868;-74
2024/03/24 11:46:09;;;;;;;1.10;1.00;;;9.00;99.90;;;;;;4943367;28;21002;-74
2024/03/24 11:48:37;;;;;;;1.33;1.23;;;9.10;99.90;;;;;;4961204;28;20445;-74
2024/03/24 11:51:05;;;;;;;0.73;0.73;;;9.40;99.90;;;;;;4970518;28;20463;-75
2024/03/24 11:53:31;;;;;;;1.93;1.43;;;9.40;99.90;;;;;;4975548;28;20477;-74
2024/03/24 11:56:01;;;;;;;1.87;1.40;;;9.60;99.90;;;;;;4960385;28;20483;-75
2024/03/24 11:58:27;;;;;;;1.37;1.10;;;9.80;99.90;;;;;;4973132;28;20465;-74
2024/03/24 12:00:53;;;;;;;2.40;1.57;;;10.00;99.90;;;;;;4974345;28;21123;-74
2024/03/24 12:03:19;;;;;;;4.07;2.30;;;10.10;99.90;;;;;;4966131;28;20460;-74
2024/03/24 12:05:47;;;;;;;1.43;0.90;;;10.00;99.90;;;;;;4978600;28;20464;-74
2024/03/24 12:08:17;;;;;;;1.80;1.20;;;10.30;99.90;;;;;;4968873;28;20515;-74
2024/03/24 12:10:43;;;;;;;1.80;0.93;;;10.30;99.90;;;;;;4972854;28;20465;-74
2024/03/24 12:13:15;;;;;;;1.53;1.30;;;10.50;99.90;;;;;;4973308;28;20468;-73
2024/03/24 12:15:45;;;;;;;2.40;1.20;;;10.70;99.90;;;;;;4959836;28;20472;-74
2024/03/24 12:18:12;;;;;;;5.80;1.60;;;10.70;99.90;;;;;;4976349;28;20472;-74
2024/03/24 12:20:38;;;;;;;2.20;1.43;;;10.60;99.90;;;;;;4969694;28;20468;-74
2024/03/24 12:23:05;;;;;;;1.27;1.17;;;10.50;99.90;;;;;;4981509;28;20468;-75
2024/03/24 12:25:31;;;;;;;1.30;1.07;;;10.30;99.90;;;;;;4975675;28;20527;-75
2024/03/24 12:27:57;;;;;;;1.10;1.00;;;9.90;99.90;;;;;;4960781;28;20484;-75
2024/03/24 12:30:24;;;;;;;0.93;0.60;;;9.50;99.90;;;;;;4959990;28;20476;-74
2024/03/24 12:32:51;;;;;;;1.23;0.80;;;9.10;99.90;;;;;;4975467;28;20576;-74
2024/03/24 12:35:19;;;;;;;1.80;1.17;;;9.10;99.90;;;;;;4973299;28;20474;-73
2024/03/24 12:37:46;;;;;;;2.83;1.70;;;9.00;99.90;;;;;;4960180;28;20461;-74
2024/03/24 12:40:22;;;;;;;1.57;1.40;;;8.90;99.90;;;;;;4969985;28;20456;-74
2024/03/24 12:42:48;;;;;;;2.20;1.60;;;8.60;99.90;;;;;;4977014;28;20465;-74
2024/03/24 12:45:15;;;;;;;2.27;1.20;;;8.50;99.90;;;;;;4953752;28;21034;-74
2024/03/24 12:47:45;;;;;;;1.17;1.07;;;8.50;99.90;;;;;;4959917;28;20552;-74
2024/03/24 12:50:29;;;;;;;1.43;1.10;;;8.60;99.90;;;;;;4943978;28;20466;-74
2024/03/24 12:53:34;;;;;;;4.43;1.17;;;8.70;99.90;;;;;;4978902;28;20508;-74
2024/03/24 12:56:02;;;;;;;1.60;0.80;;;8.90;99.90;;;;;;4978850;28;21010;-72